Time;durP1;ratioP1;P1;durP2;ratioP2;P2;SDS_P1;SDS_P2;PMS_P1;PMS_P2;Temp;Humidity;BMP_temperature;BMP_pressure;BME280_temperature;BME280_humidity;BME280_pressure;Samples;Min_cycle;Max_cycle;Signal;HPM_P1;HPM_P2
2021/06/24 00:00:25;;;;;;;;;;;;;;;25.00;49.25;101204.31;5042188;28;1902;-69
2021/06/24 00:03:12;;;;;;;;;;;;;;;24.98;49.01;101200.94;5044197;28;1267;-69
2021/06/24 00:05:58;;;;;;;;;;;;;;;24.98;49.06;101206.25;5043305;28;1155;-69
2021/06/24 00:08:43;;;;;;;;;;;;;;;24.99;49.13;101203.47;5045288;28;1443;-68
2021/06/24 00:11:28;;;;;;;;;;;;;;;24.99;49.09;101202.59;5041564;28;1314;-69
2021/06/24 00:14:14;;;;;;;;;;;;;;;24.97;49.07;101204.53;5043589;28;1177;-69
2021/06/24 00:16:59;;;;;;;;;;;;;;;24.96;49.15;101197.50;5044095;28;1259;-70
2021/06/24 00:19:44;;;;;;;;;;;;;;;24.97;49.44;101199.22;5042966;28;1173;-71
2021/06/24 00:22:30;;;;;;;;;;;;;;;24.97;49.46;101205.41;5043081;28;1295;-71
2021/06/24 00:25:15;;;;;;;;;;;;;;;24.98;49.48;101206.25;5043147;28;1123;-70
2021/06/24 00:28:01;;;;;;;;;;;;;;;24.98;49.21;101200.94;5043617;28;1389;-71
2021/06/24 00:30:47;;;;;;;;;;;;;;;24.97;49.12;101200.06;5041609;28;1083;-70
2021/06/24 00:33:33;;;;;;;;;;;;;;;24.97;49.43;101194.75;5042848;28;1249;-70
2021/06/24 00:36:18;;;;;;;;;;;;;;;24.96;49.45;101194.84;5043434;28;1303;-71
2021/06/24 00:39:04;;;;;;;;;;;;;;;24.95;49.46;101195.81;5046114;28;1344;-71
2021/06/24 00:41:50;;;;;;;;;;;;;;;24.96;49.41;101202.84;5046043;28;1902;-71
2021/06/24 00:44:36;;;;;;;;;;;;;;;24.97;49.59;101199.22;5048971;28;1197;-71
2021/06/24 00:47:21;;;;;;;;;;;;;;;24.96;49.31;101200.16;5049481;28;1324;-71
2021/06/24 00:50:07;;;;;;;;;;;;;;;24.97;49.30;101199.22;5047376;28;1097;-71
2021/06/24 00:52:53;;;;;;;;;;;;;;;24.95;49.59;101207.34;5048560;28;1324;-70
2021/06/24 00:55:43;;;;;;;;;;;;;;;24.95;49.59;101202.00;5048764;28;1115;-70
2021/06/24 00:58:29;;;;;;;;;;;;;;;24.97;49.70;101199.22;5047622;28;1284;-70
2021/06/24 01:01:14;;;;;;;;;;;;;;;24.95;49.54;101202.00;5048399;28;1902;-70
2021/06/24 01:04:00;;;;;;;;;;;;;;;24.95;49.00;101199.34;5048882;28;1130;-70
2021/06/24 01:06:46;;;;;;;;;;;;;;;24.94;49.17;101194.13;5045599;28;1421;-71
2021/06/24 01:09:32;;;;;;;;;;;;;;;24.94;49.35;101189.66;5047558;28;1216;-70
2021/06/24 01:12:17;;;;;;;;;;;;;;;24.94;49.01;101183.47;5048209;28;1266;-70
2021/06/24 01:15:02;;;;;;;;;;;;;;;24.94;49.01;101186.13;5049074;28;1119;-70
2021/06/24 01:17:48;;;;;;;;;;;;;;;24.94;49.17;101178.13;5046291;28;1266;-70
2021/06/24 01:20:36;;;;;;;;;;;;;;;24.94;49.02;101173.66;5047605;28;1969;-71
2021/06/24 01:23:21;;;;;;;;;;;;;;;24.92;49.09;101166.75;5048924;28;1391;-70
2021/06/24 01:26:07;;;;;;;;;;;;;;;24.92;49.21;101169.41;5046698;28;1178;-70
2021/06/24 01:28:52;;;;;;;;;;;;;;;24.93;49.52;101166.63;5047311;28;1198;-70
2021/06/24 01:31:38;;;;;;;;;;;;;;;24.93;49.31;101157.75;5046881;28;1327;-70
2021/06/24 01:34:25;;;;;;;;;;;;;;;24.93;49.34;101160.44;5046914;28;1125;-72
2021/06/24 01:37:10;;;;;;;;;;;;;;;24.93;49.62;101160.44;5045467;28;1308;-70
2021/06/24 01:39:56;;;;;;;;;;;;;;;24.91;49.48;101162.38;5047670;28;1134;-71
2021/06/24 01:42:44;;;;;;;;;;;;;;;24.91;49.58;101157.91;5048963;28;1320;-72
2021/06/24 01:45:29;;;;;;;;;;;;;;;24.90;49.36;101161.53;5046773;28;1127;-71
2021/06/24 01:48:15;;;;;;;;;;;;;;;24.91;49.50;101151.72;5049276;28;1270;-71
2021/06/24 01:51:02;;;;;;;;;;;;;;;24.91;49.55;101157.03;5046823;28;1171;-71
2021/06/24 01:53:49;;;;;;;;;;;;;;;24.90;49.44;101158.00;5045513;28;1111;-71
2021/06/24 01:56:36;;;;;;;;;;;;;;;24.91;49.51;101163.22;5046745;28;1360;-71
2021/06/24 01:59:21;;;;;;;;;;;;;;;24.91;49.63;101157.03;5048059;28;1146;-71
2021/06/24 02:02:06;;;;;;;;;;;;;;;24.91;49.62;101159.72;5046030;28;2289;-72
2021/06/24 02:04:52;;;;;;;;;;;;;;;24.89;49.64;101159.84;5046485;28;1201;-72
2021/06/24 02:07:42;;;;;;;;;;;;;;;24.91;49.50;101162.38;5047609;28;1281;-71
2021/06/24 02:10:27;;;;;;;;;;;;;;;24.89;49.55;101161.66;5046084;28;1110;-69
2021/06/24 02:13:13;;;;;;;;;;;;;;;24.89;49.43;101169.66;5046604;28;1268;-69
2021/06/24 02:15:59;;;;;;;;;;;;;;;24.88;49.44;101163.47;5047225;28;1157;-69
2021/06/24 02:18:44;;;;;;;;;;;;;;;24.89;49.32;101169.66;5047621;28;1412;-69
2021/06/24 02:21:29;;;;;;;;;;;;;;;24.88;49.14;101167.94;5045603;28;2024;-69
2021/06/24 02:24:15;;;;;;;;;;;;;;;24.88;48.79;101175.94;5046280;28;1095;-69
2021/06/24 02:27:00;;;;;;;;;;;;;;;24.88;48.56;101174.13;5045397;28;1331;-69
2021/06/24 02:29:46;;;;;;;;;;;;;;;24.90;48.31;101174.00;5045508;28;1219;-70
2021/06/24 02:32:31;;;;;;;;;;;;;;;24.87;47.88;101172.41;5046146;28;1324;-72
2021/06/24 02:35:16;;;;;;;;;;;;;;;24.86;47.60;101169.88;5046562;28;1213;-72
2021/06/24 02:38:02;;;;;;;;;;;;;;;24.86;47.56;101173.41;5047532;28;1307;-72
2021/06/24 02:40:47;;;;;;;;;;;;;;;24.85;47.43;101168.16;5045220;28;1955;-71
2021/06/24 02:43:32;;;;;;;;;;;;;;;24.85;47.30;101162.84;5044571;28;1288;-71
2021/06/24 02:46:18;;;;;;;;;;;;;;;24.83;46.96;101176.31;5050080;28;1788;-71
2021/06/24 02:49:04;;;;;;;;;;;;;;;24.81;46.98;101175.53;5054470;28;1674;-70
2021/06/24 02:51:49;;;;;;;;;;;;;;;24.82;47.16;101165.75;5050533;28;1703;-71
2021/06/24 02:54:35;;;;;;;;;;;;;;;24.82;46.99;101166.59;5049703;28;1747;-71
2021/06/24 02:57:20;;;;;;;;;;;;;;;24.79;46.90;101172.13;5051566;28;1684;-71
2021/06/24 03:00:07;;;;;;;;;;;;;;;24.79;46.90;101171.28;5049772;28;1804;-70
2021/06/24 03:02:53;;;;;;;;;;;;;;;24.79;46.86;101152.63;5049072;28;1910;-71
2021/06/24 03:05:38;;;;;;;;;;;;;;;24.77;46.62;101157.22;5048960;28;1702;-71
2021/06/24 03:08:24;;;;;;;;;;;;;;;24.80;46.68;101157.00;5049806;28;1728;-70
2021/06/24 03:11:09;;;;;;;;;;;;;;;24.79;47.08;101149.94;5049235;28;2122;-71
2021/06/24 03:13:55;;;;;;;;;;;;;;;24.80;46.35;101151.66;5048183;28;1714;-71
2021/06/24 03:16:41;;;;;;;;;;;;;;;24.77;46.25;101149.22;5044101;28;1366;-71
2021/06/24 03:19:26;;;;;;;;;;;;;;;24.76;46.25;101148.38;5042198;28;1081;-70
2021/06/24 03:22:11;;;;;;;;;;;;;;;24.74;45.92;101145.00;5043124;28;1897;-71
2021/06/24 03:24:59;;;;;;;;;;;;;;;24.77;46.45;101141.25;5046290;28;1181;-71
2021/06/24 03:27:44;;;;;;;;;;;;;;;24.76;46.08;101147.53;5044633;28;1601;-71
2021/06/24 03:30:29;;;;;;;;;;;;;;;24.76;45.75;101143.06;5044140;28;1127;-71
2021/06/24 03:33:15;;;;;;;;;;;;;;;24.74;45.66;101144.13;5045469;28;1323;-71
2021/06/24 03:36:01;;;;;;;;;;;;;;;24.74;45.67;101142.31;5046012;28;1107;-71
2021/06/24 03:38:47;;;;;;;;;;;;;;;24.74;45.49;101160.13;5046859;28;1391;-71
2021/06/24 03:41:33;;;;;;;;;;;;;;;24.75;45.57;101156.47;5043809;28;2010;-73
2021/06/24 03:44:18;;;;;;;;;;;;;;;24.72;45.51;101160.22;5045603;28;1196;-71
2021/06/24 03:47:04;;;;;;;;;;;;;;;24.72;45.32;101162.88;5045214;28;1413;-71
2021/06/24 03:49:49;;;;;;;;;;;;;;;24.71;45.29;101155.88;5044376;28;1154;-70
2021/06/24 03:52:35;;;;;;;;;;;;;;;24.69;45.21;101160.44;5043983;28;1310;-71
2021/06/24 03:55:35;;;;;;;;;;;;;;;24.71;45.20;101166.53;5046193;28;1107;-70
2021/06/24 03:58:21;;;;;;;;;;;;;;;24.72;45.23;101167.34;5046036;28;1267;-71
2021/06/24 04:01:06;;;;;;;;;;;;;;;24.74;45.38;101165.44;5046261;28;1902;-71
2021/06/24 04:03:51;;;;;;;;;;;;;;;24.74;45.10;101166.31;5042883;28;1159;-71
2021/06/24 04:06:37;;;;;;;;;;;;;;;24.73;45.04;101171.72;5045376;28;1390;-71
2021/06/24 04:09:22;;;;;;;;;;;;;;;24.73;45.21;101174.41;5045802;28;1047;-72
2021/06/24 04:12:08;;;;;;;;;;;;;;;24.73;45.09;101174.41;5043536;28;1768;-73
2021/06/24 04:14:53;;;;;;;;;;;;;;;24.71;45.11;101166.53;5045119;28;1123;-73
2021/06/24 04:17:38;;;;;;;;;;;;;;;24.70;45.00;101174.63;5048883;28;1341;-73
2021/06/24 04:20:24;;;;;;;;;;;;;;;24.69;44.92;101172.91;5050143;28;1102;-73
2021/06/24 04:23:09;;;;;;;;;;;;;;;24.69;44.74;101178.25;5048137;28;1906;-72
2021/06/24 04:25:55;;;;;;;;;;;;;;;24.70;44.66;101179.97;5047536;28;1344;-72
2021/06/24 04:28:40;;;;;;;;;;;;;;;24.68;44.67;101184.56;5049644;28;1147;-71
2021/06/24 04:31:26;;;;;;;;;;;;;;;24.69;44.97;101187.09;5049899;28;1303;-71
2021/06/24 04:34:11;;;;;;;;;;;;;;;24.70;44.84;101178.16;5048047;28;1101;-71
2021/06/24 04:36:56;;;;;;;;;;;;;;;24.69;44.91;101189.75;5048615;28;1331;-72
2021/06/24 04:39:42;;;;;;;;;;;;;;;24.69;44.08;101194.22;5048677;28;1158;-70
2021/06/24 04:42:32;;;;;;;;;;;;;;;24.65;44.49;101195.44;5048039;28;1953;-70
2021/06/24 04:45:17;;;;;;;;;;;;;;;24.65;44.47;101203.44;5048667;28;1171;-70
2021/06/24 04:48:03;;;;;;;;;;;;;;;24.64;44.16;101191.06;5049507;28;1307;-70
2021/06/24 04:50:48;;;;;;;;;;;;;;;24.64;44.61;101207.91;5047512;28;1119;-71
2021/06/24 04:53:34;;;;;;;;;;;;;;;24.63;44.63;101203.53;5048778;28;1284;-71
2021/06/24 04:56:19;;;;;;;;;;;;;;;24.62;44.17;101211.66;5048886;28;1398;-70
2021/06/24 04:59:05;;;;;;;;;;;;;;;24.64;44.55;101218.56;5049288;28;1186;-70
2021/06/24 05:01:50;;;;;;;;;;;;;;;24.61;44.17;101224.13;5047198;28;1897;-69
2021/06/24 05:04:35;;;;;;;;;;;;;;;24.59;43.90;101220.72;5047972;28;1197;-70
2021/06/24 05:07:20;;;;;;;;;;;;;;;24.58;44.04;101223.50;5048649;28;1400;-70
2021/06/24 05:10:06;;;;;;;;;;;;;;;24.59;44.53;101225.19;5049207;28;1154;-70
2021/06/24 05:12:51;;;;;;;;;;;;;;;24.59;44.45;101220.72;5047032;28;1294;-71
2021/06/24 05:15:40;;;;;;;;;;;;;;;24.56;43.92;101230.75;5048172;28;1126;-71
2021/06/24 05:18:25;;;;;;;;;;;;;;;24.56;44.21;101225.44;5046749;28;1323;-71
2021/06/24 05:21:11;;;;;;;;;;;;;;;24.57;44.16;101227.09;5046986;28;1091;-72
2021/06/24 05:23:56;;;;;;;;;;;;;;;24.58;44.62;101228.81;5048341;28;1345;-72
2021/06/24 05:26:41;;;;;;;;;;;;;;;24.58;44.58;101239.47;5047891;28;1409;-71
2021/06/24 05:29:26;;;;;;;;;;;;;;;24.58;44.78;101234.16;5048751;28;1193;-71
2021/06/24 05:32:12;;;;;;;;;;;;;;;24.58;44.67;101231.47;5046889;28;1324;-72
2021/06/24 05:34:57;;;;;;;;;;;;;;;24.57;44.69;101232.44;5049306;28;1125;-71
2021/06/24 05:37:43;;;;;;;;;;;;;;;24.59;44.72;101234.03;5047331;28;1324;-71
2021/06/24 05:40:28;;;;;;;;;;;;;;;24.59;44.73;101238.53;5046299;28;1098;-71
2021/06/24 05:43:14;;;;;;;;;;;;;;;24.58;44.60;101242.13;5046020;28;1918;-73
2021/06/24 05:46:00;;;;;;;;;;;;;;;24.58;44.69;101239.47;5048044;28;1094;-73
2021/06/24 05:48:45;;;;;;;;;;;;;;;24.55;44.51;101243.22;5047180;28;1175;-72
2021/06/24 05:51:30;;;;;;;;;;;;;;;24.58;44.69;101250.97;5046447;28;1342;-72
2021/06/24 05:54:16;;;;;;;;;;;;;;;24.56;44.82;101252.06;5045718;28;1155;-70
2021/06/24 05:57:02;;;;;;;;;;;;;;;24.56;44.49;101258.25;5047564;28;1284;-70
2021/06/24 05:59:48;;;;;;;;;;;;;;;24.57;44.55;101257.25;5048524;28;1269;-71
2021/06/24 06:02:33;;;;;;;;;;;;;;;24.54;44.70;101254.81;5046719;28;1979;-72
2021/06/24 06:05:19;;;;;;;;;;;;;;;24.53;44.78;101262.94;5047189;28;1166;-71
2021/06/24 06:08:05;;;;;;;;;;;;;;;24.56;44.48;101260.06;5048012;28;1383;-71
2021/06/24 06:10:50;;;;;;;;;;;;;;;24.54;44.68;101272.59;5046171;28;1197;-70
2021/06/24 06:13:35;;;;;;;;;;;;;;;24.52;44.39;101272.72;5046674;28;1320;-70
2021/06/24 06:16:21;;;;;;;;;;;;;;;24.55;44.18;101271.66;5047244;28;1292;-70
2021/06/24 06:19:07;;;;;;;;;;;;;;;24.54;44.25;101272.59;5048363;28;1189;-71
2021/06/24 06:21:52;;;;;;;;;;;;;;;24.54;44.13;101272.59;5046037;28;1914;-70
2021/06/24 06:24:39;;;;;;;;;;;;;;;24.53;43.92;101273.59;5046585;28;1182;-70
2021/06/24 06:27:24;;;;;;;;;;;;;;;24.53;44.18;101276.25;5047739;28;1422;-70
2021/06/24 06:30:10;;;;;;;;;;;;;;;24.53;44.24;101273.59;5045945;28;1153;-70
2021/06/24 06:32:55;;;;;;;;;;;;;;;24.53;44.03;101273.59;5046404;28;1324;-71
2021/06/24 06:35:41;;;;;;;;;;;;;;;24.55;44.08;101276.97;5045919;28;1162;-70
2021/06/24 06:38:26;;;;;;;;;;;;;;;24.54;44.07;101280.59;5046805;28;1444;-70
2021/06/24 06:41:12;;;;;;;;;;;;;;;24.53;44.36;101293.06;5044282;28;1058;-70
2021/06/24 06:43:57;;;;;;;;;;;;;;;24.55;44.47;101288.50;5046421;28;1091;-71
2021/06/24 06:46:42;;;;;;;;;;;;;;;24.57;44.58;101299.00;5046746;28;1319;-71
2021/06/24 06:49:28;;;;;;;;;;;;;;;24.55;44.36;101288.50;5047400;28;1308;-72
2021/06/24 06:52:13;;;;;;;;;;;;;;;24.55;44.66;101290.31;5044166;28;1306;-72
2021/06/24 06:54:58;;;;;;;;;;;;;;;24.54;44.40;101291.25;5045770;28;1074;-72
2021/06/24 06:57:44;;;;;;;;;;;;;;;24.57;44.60;101296.34;5047001;28;1309;-71
2021/06/24 07:00:30;;;;;;;;;;;;;;;24.58;44.67;101298.91;5044236;28;1139;-71
2021/06/24 07:03:16;;;;;;;;;;;;;;;24.56;44.57;101303.53;5046134;28;1902;-66
2021/06/24 07:06:01;;;;;;;;;;;;;;;24.51;44.31;101302.97;5047322;28;1154;-68
2021/06/24 07:08:47;;;;;;;;;;;;;;;24.52;44.23;101311.81;5044780;28;1231;-69
2021/06/24 07:11:32;;;;;;;;;;;;;;;24.50;43.97;101313.75;5045013;28;1320;-70
2021/06/24 07:14:19;;;;;;;;;;;;;;;24.50;44.19;101313.75;5046249;28;1201;-68
2021/06/24 07:17:04;;;;;;;;;;;;;;;24.53;44.17;101305.56;5046166;28;1284;-68
2021/06/24 07:19:49;;;;;;;;;;;;;;;24.51;43.97;101313.63;5047047;28;1391;-68
2021/06/24 07:22:35;;;;;;;;;;;;;;;24.51;43.86;101315.44;5045087;28;1926;-66
2021/06/24 07:25:22;;;;;;;;;;;;;;;24.54;44.01;101317.88;5046335;28;1078;-70
2021/06/24 07:28:08;;;;;;;;;;;;;;;24.53;44.23;101316.19;5046634;28;1307;-68
2021/06/24 07:30:53;;;;;;;;;;;;;;;24.52;44.34;101319.81;5044576;28;1115;-67
2021/06/24 07:33:38;;;;;;;;;;;;;;;24.54;44.30;101326.72;5045649;28;1135;-67
2021/06/24 07:36:24;;;;;;;;;;;;;;;24.53;44.08;101318.88;5044138;28;1312;-68
2021/06/24 07:39:09;;;;;;;;;;;;;;;24.55;44.50;101325.78;5046312;28;1242;-66
2021/06/24 07:41:54;;;;;;;;;;;;;;;24.58;44.43;101330.03;5044474;28;2066;-70
2021/06/24 07:44:40;;;;;;;;;;;;;;;24.57;44.08;101326.50;5045379;28;1185;-67
2021/06/24 07:47:25;;;;;;;;;;;;;;;24.59;44.15;101323.75;5046058;28;1382;-70
2021/06/24 07:50:11;;;;;;;;;;;;;;;24.58;43.86;101322.91;5043130;28;1196;-68
2021/06/24 07:52:58;;;;;;;;;;;;;;;24.66;44.82;101325.84;5045241;28;1381;-69
2021/06/24 07:55:45;;;;;;;;;;;;;;;24.65;44.57;101321.50;5045613;28;1166;-73
2021/06/24 07:58:30;;;;;;;;;;;;;;;24.68;44.90;101320.41;5044300;28;1296;-71
2021/06/24 08:01:20;;;;;;;;;;;;;;;24.72;44.73;101317.41;5043818;28;1369;-71
2021/06/24 08:04:10;;;;;;;;;;;;;;;24.74;43.92;101319.97;5044938;28;1991;-68
2021/06/24 08:06:57;;;;;;;;;;;;;;;24.63;43.30;101322.53;5044783;28;1277;-70
2021/06/24 08:09:43;;;;;;;;;;;;;;;24.61;42.89;101322.66;5045442;28;1177;-72
2021/06/24 08:12:28;;;;;;;;;;;;;;;24.62;43.04;101326.19;5048322;28;1405;-72
2021/06/24 08:15:20;;;;;;;;;;;;;;;24.60;42.48;101322.75;5044660;28;1170;-73
2021/06/24 08:18:05;;;;;;;;;;;;;;;24.60;42.02;101323.63;5045337;28;1286;-67
2021/06/24 08:20:50;;;;;;;;;;;;;;;24.53;41.88;101321.53;5046255;28;1194;-70
2021/06/24 08:23:38;;;;;;;;;;;;;;;24.58;41.73;101335.34;5044587;28;1977;-70
2021/06/24 08:26:23;;;;;;;;;;;;;;;24.43;41.08;101321.34;5045412;28;1367;-73
2021/06/24 08:29:09;;;;;;;;;;;;;;;24.44;41.41;101334.53;5046788;28;1147;-79
2021/06/24 08:31:54;;;;;;;;;;;;;;;24.45;41.02;101330.91;5044503;28;1463;-71
2021/06/24 08:34:39;;;;;;;;;;;;;;;24.47;41.05;101334.31;5044247;28;1134;-71
2021/06/24 08:37:26;;;;;;;;;;;;;;;24.50;41.08;101327.06;5045174;28;1263;-71
2021/06/24 08:40:11;;;;;;;;;;;;;;;24.58;41.60;101332.69;5043465;28;1121;-71
2021/06/24 08:42:57;;;;;;;;;;;;;;;24.65;40.92;101333.97;5044672;28;1902;-67
2021/06/24 08:45:42;;;;;;;;;;;;;;;24.62;40.71;101328.84;5044016;28;1207;-68
2021/06/24 08:48:31;;;;;;;;;;;;;;;24.62;40.24;101328.84;5044677;28;1355;-69
2021/06/24 08:51:17;;;;;;;;;;;;;;;24.67;40.43;101322.22;5042919;28;1332;-67
2021/06/24 08:54:02;;;;;;;;;;;;;;;24.65;40.38;101324.16;5045825;28;1126;-69
2021/06/24 08:56:48;;;;;;;;;;;;;;;24.63;40.30;101323.41;5046022;28;1355;-69
2021/06/24 08:59:33;;;;;;;;;;;;;;;24.65;40.09;101325.97;5044388;28;1158;-69
2021/06/24 09:02:35;;;;;;;;;;;;;;;24.65;40.22;101337.47;5046199;28;2001;-72
2021/06/24 09:05:22;;;;;;;;;;;;;;;24.69;40.41;101335.41;5047660;28;1135;-71
2021/06/24 09:08:08;;;;;;;;;;;;;;;24.70;40.90;101326.47;5049788;28;1347;-67
2021/06/24 09:11:12;;;;;;;;;;;;;;;24.70;40.36;101326.47;5047542;28;1048;-67
2021/06/24 09:13:59;;;;;;;;;;;;;;;24.69;40.14;101332.75;5045955;28;1110;-71
2021/06/24 09:16:45;;;;;;;;;;;;;;;24.67;40.13;101340.00;5047232;28;1674;-67
2021/06/24 09:19:30;;;;;;;;;;;;;;;24.69;40.00;101336.28;5048367;28;1168;-66
2021/06/24 09:22:15;;;;;;;;;;;;;;;24.71;41.05;101333.50;5047064;28;1902;-70
2021/06/24 09:25:01;;;;;;;;;;;;;;;24.75;41.15;101342.97;5045339;28;1265;-72
2021/06/24 09:27:47;;;;;;;;;;;;;;;24.75;40.49;101337.63;5047560;28;1315;-69
2021/06/24 09:30:35;;;;;;;;;;;;;;;24.84;39.34;101343.19;5049445;28;1194;-67
2021/06/24 09:33:20;;;;;;;;;;;;;;;24.84;39.28;101347.66;5045229;28;1328;-72
2021/06/24 09:36:06;;;;;;;;;;;;;;;24.88;39.57;101343.81;5048765;28;1119;-68
2021/06/24 09:38:51;;;;;;;;;;;;;;;24.96;40.63;101352.06;5049027;28;1102;-69
2021/06/24 09:41:54;;;;;;;;;;;;;;;24.88;39.54;101355.31;5048347;28;1368;-66
2021/06/24 09:44:41;;;;;;;;;;;;;;;24.89;40.43;101350.84;5045114;28;1902;-66
2021/06/24 09:47:29;;;;;;;;;;;;;;;24.79;40.88;101350.63;5048386;28;1269;-68
2021/06/24 09:50:19;;;;;;;;;;;;;;;24.76;41.04;101353.53;5049040;28;714;-66
2021/06/24 09:53:09;;;;;;;;;;;;;;;24.75;40.81;101353.63;5049352;28;1291;-69
2021/06/24 09:55:54;;;;;;;;;;;;;;;24.76;41.01;101361.50;5049095;28;663;-69
2021/06/24 09:58:46;;;;;;;;;;;;;;;24.79;40.75;101368.44;5049292;28;967;-67
2021/06/24 10:01:32;;;;;;;;;;;;;;;24.77;41.01;101362.38;5049728;28;1270;-70
2021/06/24 10:04:27;;;;;;;;;;;;;;;24.78;41.18;101362.25;5049283;28;1902;-69
2021/06/24 10:07:13;;;;;;;;;;;;;;;24.81;41.22;101372.72;5048362;28;1392;-69
2021/06/24 10:09:59;;;;;;;;;;;;;;;24.84;41.10;101368.97;5049626;28;623;-69
2021/06/24 10:12:45;;;;;;;;;;;;;;;24.84;41.12;101372.47;5059577;28;1562;-68
2021/06/24 10:15:31;;;;;;;;;;;;;;;24.83;41.10;101373.47;5045898;28;600;-69
2021/06/24 10:18:18;;;;;;;;;;;;;;;24.86;41.41;101385.72;5041624;28;1272;-72
2021/06/24 10:21:04;;;;;;;;;;;;;;;24.86;41.62;101388.38;5029918;28;652;-68
2021/06/24 10:24:06;;;;;;;;;;;;;;;24.86;41.65;101388.38;5029288;28;1898;-71
2021/06/24 10:26:56;;;;;;;;;;;;;;;24.84;41.87;101391.13;5027989;28;1217;-71
2021/06/24 10:29:49;;;;;;;;;;;;;;;24.85;41.75;101387.53;5029381;28;608;-73
2021/06/24 10:32:35;;;;;;;;;;;;;;;24.86;41.87;101396.38;5029257;28;1239;-73
2021/06/24 10:35:24;;;;;;;;;;;;;;;24.88;42.32;101402.44;5028197;28;620;-67
2021/06/24 10:38:12;;;;;;;;;;;;;;;24.89;42.80;101391.69;5041453;28;1286;-72
2021/06/24 10:41:00;;;;;;;;;;;;;;;24.99;43.14;101394.50;5028681;28;714;-71
2021/06/24 10:43:45;;;;;;;;;;;;;;;25.00;42.26;101385.53;5028856;28;2398;-73
2021/06/24 10:46:30;;;;;;;;;;;;;;;24.96;41.89;101387.56;5041510;28;1304;-70
2021/06/24 10:49:23;;;;;;;;;;;;;;;24.93;41.85;101387.81;5028970;28;655;-72
2021/06/24 10:52:14;;;;;;;;;;;;;;;24.92;42.14;101382.59;5029054;28;1366;-71
2021/06/24 10:55:00;;;;;;;;;;;;;;;24.90;42.19;101388.03;5028882;28;657;-71
2021/06/24 10:57:45;;;;;;;;;;;;;;;24.90;42.30;101397.84;5029323;28;1306;-72
2021/06/24 11:00:34;;;;;;;;;;;;;;;24.91;42.05;101395.06;5028775;28;648;-71
2021/06/24 11:03:36;;;;;;;;;;;;;;;24.91;41.84;101400.41;5028540;28;1979;-73
2021/06/24 11:06:28;;;;;;;;;;;;;;;24.93;42.19;101408.28;5028777;28;1326;-71
2021/06/24 11:09:14;;;;;;;;;;;;;;;24.92;42.11;101406.59;5028844;28;686;-71
2021/06/24 11:11:59;;;;;;;;;;;;;;;24.93;42.01;101409.13;5027402;28;1550;-72
2021/06/24 11:14:54;;;;;;;;;;;;;;;24.92;42.07;101411.91;5028627;28;668;-69
2021/06/24 11:17:44;;;;;;;;;;;;;;;24.93;42.00;101417.13;5030735;28;1481;-71
2021/06/24 11:20:42;;;;;;;;;;;;;;;24.94;42.04;101412.66;5058991;28;646;-71
2021/06/24 11:23:45;;;;;;;;;;;;;;;24.77;42.02;101389.00;5032732;28;1977;-70
2021/06/24 11:26:30;;;;;;;;;;;;;;;24.94;41.91;101417.97;5028207;28;1266;-71
2021/06/24 11:35:15;;;;;;;;;;;;;;;24.92;42.50;101431.44;5047819;28;671;-70
2021/06/24 11:38:01;;;;;;;;;;;;;;;24.95;42.33;101423.22;5048049;28;1239;-70
2021/06/24 11:40:57;;;;;;;;;;;;;;;24.97;42.01;101428.41;5048378;28;643;-70
2021/06/24 11:43:59;;;;;;;;;;;;;;;24.96;42.13;101424.91;5047805;28;1898;-70
2021/06/24 11:46:52;;;;;;;;;;;;;;;24.96;42.01;101421.38;5047240;28;1284;-71
2021/06/24 12:04:58;;;;;;;;;;;;;;;24.96;42.82;101413.38;5047276;28;1909;-72
2021/06/24 12:07:44;;;;;;;;;;;;;;;24.96;42.96;101410.72;5047131;28;1319;-72
2021/06/24 12:10:30;;;;;;;;;;;;;;;24.97;43.95;101407.09;5037547;28;1487;-71
2021/06/24 12:13:32;;;;;;;;;;;;;;;25.05;44.29;101394.03;5049418;28;1660;-70
2021/06/24 12:16:18;;;;;;;;;;;;;;;25.06;45.16;101406.41;5041911;28;1312;-69
2021/06/24 12:19:08;;;;;;;;;;;;;;;25.14;45.35;101404.03;5036067;28;1376;-68
2021/06/24 12:21:53;;;;;;;;;;;;;;;25.19;44.74;101401.03;5043783;28;1330;-69
2021/06/24 12:24:43;;;;;;;;;;;;;;;25.16;44.43;101396.78;5044725;28;1910;-68
2021/06/24 12:27:32;;;;;;;;;;;;;;;25.17;44.50;101398.47;5043148;28;1576;-67
2021/06/24 12:30:34;;;;;;;;;;;;;;;25.20;44.65;101400.91;5062335;28;1144;-70
2021/06/24 12:33:20;;;;;;;;;;;;;;;25.21;45.22;101396.44;5045663;28;1364;-67
2021/06/24 12:36:05;;;;;;;;;;;;;;;25.20;45.08;101390.25;5044532;28;981;-68
2021/06/24 12:38:51;;;;;;;;;;;;;;;25.25;45.07;101390.78;5048579;28;691;-69
2021/06/24 12:41:36;;;;;;;;;;;;;;;25.28;44.74;101395.03;5045204;28;1392;-69
2021/06/24 12:44:23;;;;;;;;;;;;;;;25.28;44.58;101403.03;5028791;28;1918;-68
2021/06/24 12:47:31;;;;;;;;;;;;;;;25.22;44.93;101401.69;5053398;28;1366;-67
2021/06/24 12:50:26;;;;;;;;;;;;;;;25.30;45.34;101401.94;5043752;28;1002;-69
2021/06/24 12:53:35;;;;;;;;;;;;;;;25.34;45.52;101400.75;5048661;28;1417;-71
2021/06/24 12:56:22;;;;;;;;;;;;;;;25.32;45.15;101396.50;5047442;28;1516;-70
2021/06/24 12:59:17;;;;;;;;;;;;;;;25.33;45.16;101387.53;5028234;28;644;-70
2021/06/24 13:02:04;;;;;;;;;;;;;;;25.36;45.21;101388.16;5035958;28;1436;-69
2021/06/24 13:04:49;;;;;;;;;;;;;;;25.33;45.54;101399.06;5048228;28;1976;-70
2021/06/24 13:07:54;;;;;;;;;;;;;;;25.37;45.43;101389.88;5047772;28;1421;-68
2021/06/24 13:10:47;;;;;;;;;;;;;;;25.37;46.00;101384.53;5042177;28;1551;-74
2021/06/24 13:13:33;;;;;;;;;;;;;;;25.37;46.44;101383.69;5028180;28;1303;-74
2021/06/24 13:16:22;;;;;;;;;;;;;;;25.40;47.29;101394.97;5032632;28;2017;-70
2021/06/24 13:19:09;;;;;;;;;;;;;;;25.37;47.99;101392.53;5046645;28;1894;-74
2021/06/24 13:22:00;;;;;;;;;;;;;;;25.41;47.89;101385.16;5045586;28;1696;-67
2021/06/24 13:24:56;;;;;;;;;;;;;;;25.41;49.54;101380.66;5039107;28;1902;-69
2021/06/24 13:27:41;;;;;;;;;;;;;;;25.42;47.72;101381.50;5048622;28;1776;-69
2021/06/24 13:30:27;;;;;;;;;;;;;;;25.44;47.45;101375.09;5048259;28;1833;-67
2021/06/24 13:33:12;;;;;;;;;;;;;;;25.45;47.38;101363.47;5047384;28;1311;-67
2021/06/24 13:35:57;;;;;;;;;;;;;;;25.47;47.15;101379.38;5047893;28;644;-67
2021/06/24 13:38:55;;;;;;;;;;;;;;;25.49;46.41;101372.97;5046263;28;1640;-68
2021/06/24 13:41:41;;;;;;;;;;;;;;;25.49;46.53;101378.31;5046336;28;1301;-70
2021/06/24 13:44:27;;;;;;;;;;;;;;;25.48;46.33;101375.72;5047903;28;1996;-68
2021/06/24 13:47:13;;;;;;;;;;;;;;;25.51;45.99;101384.38;5047099;28;1515;-71
2021/06/24 13:49:58;;;;;;;;;;;;;;;25.46;45.77;101373.16;5048026;28;655;-72
2021/06/24 13:52:43;;;;;;;;;;;;;;;25.52;45.88;101380.75;5047868;28;1410;-70
2021/06/24 13:55:38;;;;;;;;;;;;;;;25.53;45.96;101378.94;5045893;28;1811;-66
2021/06/24 13:58:25;;;;;;;;;;;;;;;25.56;45.88;101372.50;5067346;28;1232;-69
2021/06/24 14:01:10;;;;;;;;;;;;;;;25.57;45.63;101379.53;5059825;28;1016;-66
2021/06/24 14:03:56;;;;;;;;;;;;;;;25.53;45.62;101366.41;5046948;28;1906;-63
2021/06/24 14:06:43;;;;;;;;;;;;;;;25.52;45.45;101371.88;5046125;28;1319;-67
2021/06/24 14:09:28;;;;;;;;;;;;;;;25.52;45.59;101370.06;5047056;28;1038;-66
2021/06/24 14:12:14;;;;;;;;;;;;;;;25.56;45.78;101365.38;5045038;28;1332;-68
2021/06/24 14:14:59;;;;;;;;;;;;;;;25.54;45.36;101365.47;5046861;28;1078;-67
2021/06/24 14:17:47;;;;;;;;;;;;;;;25.53;45.50;101362.94;5047093;28;1411;-63
2021/06/24 14:20:32;;;;;;;;;;;;;;;25.51;45.71;101360.34;5045788;28;1083;-63
2021/06/24 14:23:19;;;;;;;;;;;;;;;25.50;46.12;101360.50;5048642;28;1265;-61
2021/06/24 14:26:05;;;;;;;;;;;;;;;25.47;46.45;101358.84;5048545;28;1090;-64
2021/06/24 14:28:51;;;;;;;;;;;;;;;25.50;46.76;101371.16;5047340;28;1012;-63
2021/06/24 14:31:37;;;;;;;;;;;;;;;25.52;46.43;101362.06;5046442;28;1684;-61
2021/06/24 14:34:23;;;;;;;;;;;;;;;25.50;46.79;101363.16;5047355;28;1000;-61
2021/06/24 14:37:08;;;;;;;;;;;;;;;25.48;46.93;101360.59;5046738;28;1295;-62
2021/06/24 14:39:54;;;;;;;;;;;;;;;25.48;47.19;101365.94;5045511;28;1051;-64
2021/06/24 14:42:39;;;;;;;;;;;;;;;25.48;47.21;101362.38;5046725;28;1319;-61
2021/06/24 14:45:24;;;;;;;;;;;;;;;25.48;47.50;101360.59;5060097;28;1898;-71
2021/06/24 14:48:10;;;;;;;;;;;;;;;25.48;47.26;101365.94;5045032;28;1336;-71
2021/06/24 14:50:55;;;;;;;;;;;;;;;25.47;47.43;101360.69;5048222;28;1269;-70